Time;durP1;ratioP1;P1;durP2;ratioP2;P2;SDS_P1;SDS_P2;PMS_P1;PMS_P2;Temp;Humidity;BMP_temperature;BMP_pressure;BME280_temperature;BME280_humidity;BME280_pressure;Samples;Min_cycle;Max_cycle;Signal;HPM_P1;HPM_P2
2024/02/11 00:00:24;;;;;;;20.30;11.30;;;;;;;-145.69;67.72;52299.81;5155845;27;20196;-86
2024/02/11 00:02:51;;;;;;;22.57;11.23;;;;;;;-145.69;67.80;52299.81;5140517;27;20655;-86
2024/02/11 00:05:18;;;;;;;22.17;11.33;;;;;;;-145.69;67.60;52307.75;5134739;27;20823;-86
2024/02/11 00:07:45;;;;;;;19.80;11.43;;;;;;;-145.69;67.63;52303.78;5134979;27;20269;-86
2024/02/11 00:10:11;;;;;;;20.20;11.43;;;;;;;-145.69;68.01;52295.84;5134565;27;20193;-86
2024/02/11 00:12:38;;;;;;;20.90;11.07;;;;;;;-145.69;68.28;52278.03;5134724;27;20205;-85
2024/02/11 00:15:07;;;;;;;20.97;10.53;;;;;;;-145.69;68.05;52297.84;5134467;27;20203;-85
2024/02/11 00:17:35;;;;;;;20.30;11.57;;;;;;;-145.69;68.09;52274.06;5134899;27;20200;-85
2024/02/11 00:20:02;;;;;;;20.97;10.57;;;;;;;-145.69;67.98;52283.97;5134507;27;20201;-85
2024/02/11 00:22:29;;;;;;;19.83;10.23;;;;;;;-145.69;68.09;52301.81;5134729;27;20551;-85
2024/02/11 00:24:55;;;;;;;19.53;10.93;;;;;;;-145.69;67.40;52301.81;5134528;27;20236;-85
2024/02/11 00:27:22;;;;;;;20.33;11.90;;;;;;;-145.69;67.67;52254.28;5134406;27;20203;-85
2024/02/11 00:29:50;;;;;;;19.00;11.43;;;;;;;-145.69;67.45;52295.84;5134438;27;20212;-85
2024/02/11 00:32:16;;;;;;;23.33;12.93;;;;;;;-145.69;67.33;52297.84;5134466;27;20257;-85
2024/02/11 00:34:44;;;;;;;21.43;11.20;;;;;;;-145.69;67.48;52305.75;5134481;27;20249;-85
2024/02/11 00:37:11;;;;;;;20.77;11.00;;;;;;;-145.69;67.35;52258.22;5134156;27;20202;-86
2024/02/11 00:39:37;;;;;;;17.20;10.17;;;;;;;-145.69;67.65;52278.03;5133862;27;20223;-85
2024/02/11 00:42:05;;;;;;;18.13;9.83;;;;;;;-145.69;67.42;52274.06;5133640;27;20201;-85
2024/02/11 00:44:31;;;;;;;15.77;8.97;;;;;;;-145.69;67.26;52307.75;5134010;27;20220;-85
2024/02/11 00:46:58;;;;;;;18.27;11.03;;;;;;;-145.69;67.34;52293.88;5134112;27;20196;-85
2024/02/11 00:49:25;;;;;;;18.88;10.70;;;;;;;-145.69;67.90;52260.22;5134345;27;20225;-85
2024/02/11 00:51:54;;;;;;;20.70;12.07;;;;;;;-145.69;68.84;52262.19;5132665;28;20448;-85
2024/02/11 00:54:20;;;;;;;21.10;10.82;;;;;;;-145.69;67.91;52266.16;5133965;28;20521;-85
2024/02/11 00:56:54;;;;;;;17.60;10.70;;;;;;;-145.69;67.56;52297.84;5134101;28;20201;-86
2024/02/11 00:59:21;;;;;;;15.80;9.77;;;;;;;-145.69;67.67;52282.00;5134118;27;20662;-86
2024/02/11 01:01:48;;;;;;;17.70;10.13;;;;;;;-145.69;67.28;52285.97;5133838;27;20193;-85
2024/02/11 01:04:15;;;;;;;19.05;9.50;;;;;;;-145.69;67.22;52270.13;5133863;27;20229;-85
2024/02/11 01:06:41;;;;;;;16.43;9.70;;;;;;;-145.69;67.22;52278.03;5134245;28;20640;-86
2024/02/11 01:09:09;;;;;;;17.27;9.03;;;;;;;-145.69;67.34;52293.88;5133974;27;20192;-85
2024/02/11 01:11:35;;;;;;;16.30;9.07;;;;;;;-145.69;67.22;52278.03;5133901;27;20211;-85
2024/02/11 01:14:02;;;;;;;15.93;9.10;;;;;;;-145.69;67.28;52285.97;5133522;27;20212;-85
2024/02/11 01:16:28;;;;;;;16.70;8.80;;;;;;;-145.69;67.57;52305.75;5130080;27;20208;-85
2024/02/11 01:18:55;;;;;;;15.97;8.23;;;;;;;-145.69;67.33;52274.06;5113328;28;20206;-85
2024/02/11 01:21:23;;;;;;;12.10;7.40;;;;;;;-145.69;67.51;52289.91;5113476;28;20207;-85
2024/02/11 01:23:49;;;;;;;13.23;7.53;;;;;;;-145.69;68.07;52309.72;5113284;28;20292;-85
2024/02/11 01:26:17;;;;;;;10.03;6.90;;;;;;;-145.69;68.34;52268.13;5113132;28;20221;-85
2024/02/11 01:28:44;;;;;;;10.07;6.17;;;;;;;-145.69;69.44;52305.75;5115482;28;20720;-85
2024/02/11 01:31:11;;;;;;;9.40;5.07;;;;;;;-145.69;70.50;52289.91;5133731;27;20273;-85
2024/02/11 01:33:37;;;;;;;7.53;4.97;;;;;;;-145.69;71.26;52305.75;5133266;27;20201;-84
2024/02/11 01:36:04;;;;;;;9.20;4.43;;;;;;;-145.69;70.90;52266.16;5133409;28;20245;-84
2024/02/11 01:38:31;;;;;;;7.43;4.57;;;;;;;-145.69;71.92;52295.84;5132847;27;20197;-84
2024/02/11 01:40:57;;;;;;;7.50;5.20;;;;;;;-145.69;72.88;52313.69;5133531;27;20209;-84
2024/02/11 01:43:26;;;;;;;10.23;5.00;;;;;;;-145.69;73.00;52329.53;5133194;27;20197;-84
2024/02/11 01:45:53;;;;;;;6.57;4.30;;;;;;;-145.69;73.39;52297.84;5132628;27;20803;-84
2024/02/11 01:48:19;;;;;;;9.23;4.20;;;;;;;-145.69;73.08;52297.84;5133143;27;20212;-84
2024/02/11 01:50:46;;;;;;;6.50;4.10;;;;;;;-145.69;73.50;52353.28;5133079;27;20193;-84
2024/02/11 01:53:13;;;;;;;7.80;4.20;;;;;;;-145.69;73.29;52272.09;5133022;28;20241;-85
2024/02/11 01:55:42;;;;;;;6.43;3.13;;;;;;;-145.69;73.82;52293.88;5129781;27;20201;-84
2024/02/11 01:58:09;;;;;;;5.30;2.90;;;;;;;-145.69;73.62;52295.84;5116944;28;20246;-85
2024/02/11 02:00:38;;;;;;;5.20;3.20;;;;;;;-145.69;74.07;52295.84;5116469;28;20228;-84
2024/02/11 02:03:05;;;;;;;2.53;2.00;;;;;;;-145.69;73.50;52313.69;5116389;28;20194;-84
2024/02/11 02:05:32;;;;;;;4.57;2.33;;;;;;;-145.69;74.39;52357.25;5116206;28;20225;-84
2024/02/11 02:07:59;;;;;;;3.13;1.80;;;;;;;-145.69;74.63;52305.75;5116202;28;20205;-84
2024/02/11 02:10:26;;;;;;;2.00;1.60;;;;;;;-145.69;73.42;52329.53;5116181;28;20262;-84
2024/02/11 02:12:52;;;;;;;1.90;1.40;;;;;;;-145.69;74.36;52337.44;5115825;28;20197;-85
2024/02/11 02:15:19;;;;;;;1.20;1.00;;;;;;;-145.69;75.04;52329.53;5135296;27;20429;-85
2024/02/11 02:17:47;;;;;;;1.67;0.97;;;;;;;-145.69;73.47;52315.66;5136721;27;20196;-84
2024/02/11 02:20:14;;;;;;;1.47;1.10;;;;;;;-145.69;73.43;52317.66;5135315;27;20682;-84
2024/02/11 02:22:42;;;;;;;1.20;1.10;;;;;;;-145.69;73.65;52301.81;5136930;27;20236;-85
2024/02/11 02:25:09;;;;;;;1.20;1.10;;;;;;;-145.69;73.18;52321.59;5136283;27;20253;-85
2024/02/11 02:27:37;;;;;;;1.10;1.00;;;;;;;-145.69;73.24;52315.66;5136189;27;20767;-84
2024/02/11 02:30:04;;;;;;;1.40;0.80;;;;;;;-145.69;73.88;52301.81;5136581;27;20196;-85
2024/02/11 02:32:31;;;;;;;1.40;1.23;;;;;;;-145.69;73.61;52305.75;5136045;27;20249;-83
2024/02/11 02:34:57;;;;;;;1.60;1.40;;;;;;;-145.69;73.42;52325.56;5136305;27;20209;-84
2024/02/11 02:37:25;;;;;;;1.20;1.10;;;;;;;-145.69;73.19;52321.59;5135966;27;20197;-83
2024/02/11 02:39:52;;;;;;;1.00;0.90;;;;;;;-145.69;73.35;52339.44;5136184;27;20201;-85
2024/02/11 02:42:20;;;;;;;1.00;0.90;;;;;;;-145.69;73.15;52345.38;5135770;27;20768;-83
2024/02/11 02:44:46;;;;;;;1.37;1.10;;;;;;;-145.69;73.12;52331.50;5135903;27;20269;-84
2024/02/11 02:47:13;;;;;;;1.40;1.20;;;;;;;-145.69;74.09;52335.47;5135778;27;20710;-84
2024/02/11 02:49:39;;;;;;;2.43;1.20;;;;;;;-145.69;73.93;52343.38;5134974;27;20548;-84
2024/02/11 02:52:07;;;;;;;1.07;0.97;;;;;;;-145.69;74.20;52353.28;5135117;27;20803;-83
2024/02/11 02:54:34;;;;;;;1.00;0.90;;;;;;;-145.69;74.47;52355.28;5135103;27;20606;-84
2024/02/11 02:57:02;;;;;;;2.30;1.00;;;;;;;-145.69;73.62;52319.63;5135708;27;20223;-84
2024/02/11 02:59:28;;;;;;;0.70;0.70;;;;;;;-145.69;74.44;52345.38;5135562;27;20201;-84
2024/02/11 03:01:58;;;;;;;0.70;0.70;;;;;;;-145.69;74.26;52355.28;5135067;27;20681;-84
2024/02/11 03:04:25;;;;;;;2.77;0.70;;;;;;;-145.69;73.27;52345.38;5135054;27;20196;-84
2024/02/11 03:06:51;;;;;;;0.87;0.87;;;;;;;-145.69;73.68;52337.44;5134324;27;20229;-84
2024/02/11 03:09:18;;;;;;;2.37;1.00;;;;;;;-145.69;74.16;52321.59;5135483;27;20197;-84
2024/02/11 03:11:46;;;;;;;0.73;0.73;;;;;;;-145.69;73.95;52369.13;5135156;27;20204;-83
2024/02/11 03:14:14;;;;;;;0.70;0.70;;;;;;;-145.69;74.12;52369.13;5135215;27;20201;-84
2024/02/11 03:16:45;;;;;;;0.90;0.90;;;;;;;-145.69;73.79;52375.06;5135503;27;20253;-83
2024/02/11 03:19:13;;;;;;;1.23;1.00;;;;;;;-145.69;74.49;52341.41;5135153;27;20276;-84
2024/02/11 03:21:40;;;;;;;5.83;0.67;;;;;;;-145.69;73.57;52337.44;5135299;27;20266;-85
2024/02/11 03:24:07;;;;;;;5.30;0.80;;;;;;;-145.69;74.13;52347.34;5135004;27;20204;-83
2024/02/11 03:26:33;;;;;;;0.70;0.70;;;;;;;-145.69;75.40;52375.06;5135186;27;20610;-84
2024/02/11 03:29:00;;;;;;;0.57;0.57;;;;;;;-145.69;75.40;52345.38;5134736;27;20205;-84
2024/02/11 03:31:28;;;;;;;0.60;0.60;;;;;;;-145.69;75.33;52357.25;5134888;27;20224;-84
2024/02/11 03:33:55;;;;;;;0.60;0.60;;;;;;;-145.69;90.18;52353.28;5134866;27;20201;-83
2024/02/11 03:36:21;;;;;;;0.73;0.50;;;;;;;-145.69;77.54;52355.28;5134300;27;20197;-83
2024/02/11 03:38:48;;;;;;;0.50;0.50;;;;;;;-145.69;77.93;52353.28;5134697;27;20201;-84
2024/02/11 03:41:16;;;;;;;0.40;0.40;;;;;;;-145.69;76.81;52311.69;5134792;27;20517;-84
2024/02/11 03:43:43;;;;;;;0.50;0.50;;;;;;;-145.69;77.53;52369.13;5134562;27;20197;-83
2024/02/11 03:46:09;;;;;;;0.50;0.50;;;;;;;-145.69;76.71;52353.28;5134630;27;20232;-83
2024/02/11 03:48:37;;;;;;;0.50;0.50;;;;;;;-145.69;78.43;52357.25;5133656;27;20904;-83
2024/02/11 03:51:06;;;;;;;0.70;0.70;;;;;;;-145.69;77.89;52377.06;5133991;27;20586;-83
2024/02/11 03:53:33;;;;;;;0.50;0.50;;;;;;;-145.69;76.96;52335.47;5134230;27;20228;-82
2024/02/11 03:56:04;;;;;;;1.47;0.70;;;;;;;-145.69;76.37;52359.22;5133929;27;20233;-82
2024/02/11 03:58:32;;;;;;;1.33;0.50;;;;;;;-145.69;76.58;52392.91;5134475;27;20563;-83
2024/02/11 04:00:59;;;;;;;0.50;0.50;;;;;;;-145.69;76.29;52337.44;5135036;27;20201;-83
2024/02/11 04:03:25;;;;;;;0.90;0.50;;;;;;;-145.69;75.64;52357.25;5134115;27;20197;-83
2024/02/11 04:05:55;;;;;;;1.37;0.70;;;;;;;-145.69;75.35;52361.22;5134054;27;20219;-84
2024/02/11 04:08:22;;;;;;;0.63;0.63;;;;;;;-145.69;75.77;52394.88;5134451;27;20257;-83
2024/02/11 04:10:52;;;;;;;2.40;0.60;;;;;;;-145.69;75.98;52369.13;5133866;27;20657;-83
2024/02/11 04:13:23;;;;;;;0.70;0.70;;;;;;;-145.69;76.84;52373.09;5134197;27;20257;-83
2024/02/11 04:15:51;;;;;;;0.60;0.53;;;;;;;-145.69;76.04;52390.91;5134276;27;20197;-84
2024/02/11 04:18:21;;;;;;;0.70;0.70;;;;;;;-145.69;76.78;52386.97;5133877;27;20852;-83
2024/02/11 04:20:48;;;;;;;0.97;0.70;;;;;;;-145.69;76.26;52353.28;5133771;27;20283;-83
2024/02/11 04:23:16;;;;;;;0.63;0.63;;;;;;;-145.69;75.70;52373.09;5134274;27;20228;-83
2024/02/11 04:25:45;;;;;;;0.90;0.83;;;;;;;-145.69;75.04;52402.78;5133741;27;20265;-83
2024/02/11 04:28:12;;;;;;;0.67;0.67;;;;;;;-145.69;74.17;52386.97;5134464;27;20211;-83
2024/02/11 04:30:42;;;;;;;0.63;0.60;;;;;;;-145.69;75.87;52424.59;5133727;27;20208;-83
2024/02/11 04:33:13;;;;;;;0.97;0.80;;;;;;;-145.69;75.64;52398.84;5134288;27;20204;-83
2024/02/11 04:35:40;;;;;;;1.40;0.73;;;;;;;-145.69;76.11;52365.16;5133914;27;20197;-83
2024/02/11 04:38:12;;;;;;;0.50;0.50;;;;;;;-145.69;75.35;52371.13;5132707;27;20196;-84
2024/02/11 04:40:40;;;;;;;0.80;0.60;;;;;;;-145.69;74.92;52383.00;5133826;27;20218;-83
2024/02/11 04:43:06;;;;;;;0.60;0.60;;;;;;;-145.69;74.38;52412.69;5133615;27;20567;-83
2024/02/11 04:45:33;;;;;;;0.70;0.70;;;;;;;-145.69;74.60;52335.47;5133895;27;20224;-83
2024/02/11 04:48:03;;;;;;;1.00;0.70;;;;;;;-145.69;74.54;52381.00;5133738;27;20201;-83
2024/02/11 04:50:31;;;;;;;0.60;0.60;;;;;;;-145.69;74.34;52392.91;5133785;27;20197;-83
2024/02/11 04:53:02;;;;;;;0.77;0.77;;;;;;;-145.69;74.69;52361.22;5133539;28;20281;-83
2024/02/11 04:55:38;;;;;;;0.63;0.63;;;;;;;-145.69;74.78;52398.84;5132966;28;20223;-83
2024/02/11 04:58:11;;;;;;;0.70;0.70;;;;;;;-145.69;74.78;52381.00;5133305;27;20223;-83
2024/02/11 05:00:40;;;;;;;0.70;0.70;;;;;;;-145.69;74.77;52384.97;5133344;27;20604;-84
2024/02/11 05:03:07;;;;;;;0.70;0.70;;;;;;;-145.69;74.29;52377.06;5133669;27;20674;-83
2024/02/11 05:05:37;;;;;;;0.70;0.70;;;;;;;-145.69;74.15;52381.00;5133449;27;20624;-83
2024/02/11 05:08:07;;;;;;;0.80;0.80;;;;;;;-145.69;73.89;52365.16;5133791;27;20249;-83
2024/02/11 05:10:37;;;;;;;0.80;0.70;;;;;;;-145.69;74.45;52333.47;5133706;27;20232;-83
2024/02/11 05:13:04;;;;;;;0.63;0.63;;;;;;;-145.69;74.32;52325.56;5133060;27;20197;-83
2024/02/11 05:15:32;;;;;;;0.70;0.70;;;;;;;-145.69;74.13;52388.94;5133060;28;20253;-84
2024/02/11 05:18:00;;;;;;;0.73;0.70;;;;;;;-145.69;74.24;52369.13;5133494;27;20663;-83
2024/02/11 05:20:28;;;;;;;1.37;0.87;;;;;;;-145.69;74.04;52373.09;5133465;28;20605;-83
2024/02/11 05:22:56;;;;;;;0.97;0.97;;;;;;;-145.69;73.82;52386.97;5133345;27;20197;-83
2024/02/11 05:25:23;;;;;;;1.33;1.23;;;;;;;-145.69;73.15;52381.00;5133186;28;20197;-83
2024/02/11 05:27:55;;;;;;;1.73;1.40;;;;;;;-145.69;73.41;52357.25;5133152;27;20329;-83
2024/02/11 05:30:23;;;;;;;2.60;1.27;;;;;;;-145.69;73.35;52353.28;5134518;27;20601;-84
2024/02/11 05:32:51;;;;;;;2.17;1.37;;;;;;;-145.69;73.08;52353.28;5137430;27;20211;-84
2024/02/11 05:35:19;;;;;;;1.17;0.97;;;;;;;-145.69;72.93;52392.91;5136845;27;20193;-84
2024/02/11 05:37:46;;;;;;;1.27;1.17;;;;;;;-145.69;73.52;52377.06;5137312;27;20196;-84
2024/02/11 05:40:13;;;;;;;1.50;1.10;;;;;;;-145.69;73.55;52377.06;5137163;27;20201;-84
2024/02/11 05:42:40;;;;;;;1.30;1.20;;;;;;;-145.69;73.46;52357.25;5137383;27;20234;-84
2024/02/11 05:45:07;;;;;;;1.33;1.10;;;;;;;-145.69;73.39;52377.06;5137045;27;20197;-83
2024/02/11 05:47:34;;;;;;;4.60;1.10;;;;;;;-145.69;73.30;52377.06;5137033;27;20224;-84
2024/02/11 05:50:05;;;;;;;1.27;1.10;;;;;;;-145.69;73.13;52331.50;5136882;27;20254;-84
2024/02/11 05:52:31;;;;;;;1.40;1.17;;;;;;;-145.69;72.79;52392.91;5136679;27;20221;-83
2024/02/11 05:54:58;;;;;;;1.03;0.93;;;;;;;-145.69;72.62;52365.16;5136931;27;20200;-83
2024/02/11 05:57:24;;;;;;;1.73;1.43;;;;;;;-145.69;72.76;52396.84;5116939;27;20208;-84
2024/02/11 05:59:51;;;;;;;2.10;1.50;;;;;;;-145.69;72.89;52367.16;5116609;28;20262;-83
2024/02/11 06:02:17;;;;;;;2.23;1.70;;;;;;;-145.69;72.78;52381.00;5116358;28;20235;-83
2024/02/11 06:04:44;;;;;;;3.03;1.80;;;;;;;-145.69;72.99;52402.78;5116101;28;20202;-83
2024/02/11 06:07:11;;;;;;;1.93;1.50;;;;;;;-145.69;72.63;52357.25;5115821;28;20225;-83
2024/02/11 06:09:38;;;;;;;5.07;1.80;;;;;;;-145.69;72.89;52359.22;5115864;28;20201;-83
2024/02/11 06:12:06;;;;;;;2.07;1.20;;;;;;;-145.69;72.97;52361.22;5115847;28;20664;-83
2024/02/11 06:14:33;;;;;;;2.40;1.90;;;;;;;-145.69;72.79;52341.41;5130879;27;20245;-83
2024/02/11 06:17:00;;;;;;;2.30;1.43;;;;;;;-145.69;72.25;52367.16;5136481;27;20196;-83
2024/02/11 06:19:27;;;;;;;6.13;2.60;;;;;;;-145.69;72.88;52388.94;5136183;27;20197;-82
2024/02/11 06:21:55;;;;;;;4.37;2.47;;;;;;;-145.69;73.00;52392.91;5136075;27;20640;-84
2024/02/11 06:24:24;;;;;;;3.90;2.13;;;;;;;-145.69;72.82;52361.22;5136472;27;20234;-83
2024/02/11 06:26:50;;;;;;;3.43;2.40;;;;;;;-145.69;72.89;52343.38;5135751;27;20220;-84
2024/02/11 06:29:17;;;;;;;4.63;2.40;;;;;;;-145.69;73.06;52388.94;5135613;27;20200;-84
2024/02/11 06:31:43;;;;;;;5.57;2.63;;;;;;;-145.69;73.13;52357.25;5136162;27;20604;-84
2024/02/11 06:34:10;;;;;;;5.30;2.80;;;;;;;-145.69;73.05;52388.94;5136149;27;20219;-84
2024/02/11 06:36:37;;;;;;;3.63;2.10;;;;;;;-145.69;72.57;52369.13;5136138;27;20253;-85
2024/02/11 06:39:04;;;;;;;5.07;2.53;;;;;;;-145.69;72.73;52371.13;5136148;27;20224;-83
2024/02/11 06:41:32;;;;;;;4.53;2.40;;;;;;;-145.69;72.17;52357.25;5135795;27;20200;-83
2024/02/11 06:44:03;;;;;;;4.63;2.30;;;;;;;-145.69;72.50;52369.13;5135264;27;20226;-84
2024/02/11 06:46:30;;;;;;;4.03;2.43;;;;;;;-145.69;72.54;52388.94;5135695;27;20311;-84
2024/02/11 06:48:56;;;;;;;4.63;2.67;;;;;;;-145.69;73.12;52388.94;5135660;27;20193;-84
2024/02/11 06:51:23;;;;;;;5.53;3.33;;;;;;;-145.69;72.58;52365.16;5134292;27;20850;-83
2024/02/11 06:53:49;;;;;;;3.87;2.50;;;;;;;-145.69;72.86;52349.31;5135232;27;20254;-83
2024/02/11 06:56:17;;;;;;;4.57;3.10;;;;;;;-145.69;72.54;52375.06;5134827;27;20220;-83
2024/02/11 06:58:45;;;;;;;7.30;3.53;;;;;;;-145.69;72.36;52331.50;5135689;27;20205;-84
2024/02/11 07:01:13;;;;;;;10.87;4.33;;;;;;;-145.69;72.40;52371.13;5135458;27;20197;-83
2024/02/11 07:03:39;;;;;;;6.43;3.53;;;;;;;-145.69;72.88;52377.06;5135159;27;20196;-83
2024/02/11 07:06:06;;;;;;;6.70;3.43;;;;;;;-145.69;72.49;52383.00;5135529;27;20200;-84
2024/02/11 07:08:33;;;;;;;5.27;3.20;;;;;;;-145.69;72.33;52363.19;5135560;27;20280;-83
2024/02/11 07:11:00;;;;;;;6.90;3.50;;;;;;;-145.69;71.37;52373.09;5135199;27;20257;-83
2024/02/11 07:13:26;;;;;;;6.23;3.67;;;;;;;-145.69;71.35;52373.09;5134981;27;20189;-83
2024/02/11 07:15:56;;;;;;;6.33;3.80;;;;;;;-145.69;72.35;52375.06;5135065;27;20200;-84
2024/02/11 07:18:23;;;;;;;5.30;3.60;;;;;;;-145.69;71.47;52383.00;5135544;27;20205;-82
2024/02/11 07:20:51;;;;;;;8.53;3.50;;;;;;;-145.69;70.87;52369.13;5135132;27;20200;-84
2024/02/11 07:23:19;;;;;;;9.83;3.47;;;;;;;-145.69;71.37;52349.31;5134742;27;20192;-82
2024/02/11 07:25:47;;;;;;;8.00;3.60;;;;;;;-145.69;71.16;52355.28;5134916;27;20196;-83
2024/02/11 07:28:13;;;;;;;9.43;3.27;;;;;;;-145.69;70.63;52367.16;5135043;27;20217;-84
2024/02/11 07:30:42;;;;;;;8.13;3.60;;;;;;;-145.69;70.59;52321.59;5134573;27;20200;-83
2024/02/11 07:33:09;;;;;;;5.30;3.23;;;;;;;-145.69;70.41;52357.25;5134743;27;20675;-81
2024/02/11 07:35:37;;;;;;;8.10;3.60;;;;;;;-145.69;69.56;52349.31;5134700;27;20209;-81
2024/02/11 07:38:05;;;;;;;8.57;3.60;;;;;;;-145.69;69.21;52363.19;5134427;27;20290;-81
2024/02/11 07:40:32;;;;;;;6.70;3.53;;;;;;;-145.69;70.01;52353.28;5134826;27;20197;-81
2024/02/11 07:42:59;;;;;;;6.80;3.30;;;;;;;-145.69;69.96;52325.56;5134211;27;20204;-80
2024/02/11 07:45:26;;;;;;;7.57;3.17;;;;;;;-145.69;70.31;52357.25;5134470;27;20215;-81
2024/02/11 07:47:52;;;;;;;11.87;4.73;;;;;;;-145.69;71.01;52353.28;5134693;27;20273;-81
2024/02/11 07:50:20;;;;;;;8.67;4.10;;;;;;;-145.69;69.57;52329.53;5134432;27;20207;-81
2024/02/11 07:52:47;;;;;;;8.50;3.67;;;;;;;-145.69;71.11;52325.56;5133243;27;20221;-81
2024/02/11 07:55:13;;;;;;;9.20;3.90;;;;;;;-145.69;70.95;52361.22;5134067;27;20551;-81
2024/02/11 07:57:40;;;;;;;12.00;4.70;;;;;;;-145.69;70.69;52357.25;5134187;27;20189;-81
2024/02/11 08:00:07;;;;;;;16.80;5.80;;;;;;;-145.69;68.64;52345.38;5126966;27;20671;-81
2024/02/11 08:02:34;;;;;;;12.40;3.73;;;;;;;-145.69;69.39;52325.56;5113462;28;20274;-81
2024/02/11 08:05:00;;;;;;;12.07;3.43;;;;;;;-145.69;68.17;52315.66;5113517;28;20236;-81
2024/02/11 08:07:28;;;;;;;9.40;3.80;;;;;;;-145.69;68.08;52347.34;5113514;28;20309;-81
2024/02/11 08:09:55;;;;;;;9.27;3.50;;;;;;;-145.69;70.60;52369.13;5113129;28;20201;-82
2024/02/11 08:12:21;;;;;;;10.13;4.20;;;;;;;-145.69;68.54;52323.59;5113460;28;20209;-82
2024/02/11 08:14:48;;;;;;;8.80;3.80;;;;;;;-145.69;68.29;52337.44;5128554;27;20193;-81
2024/02/11 08:17:14;;;;;;;6.80;3.40;;;;;;;-145.69;69.26;52367.16;5134064;27;20207;-81
2024/02/11 08:19:41;;;;;;;10.77;3.53;;;;;;;-145.69;68.23;52343.38;5133484;27;20266;-81
2024/02/11 08:22:08;;;;;;;11.10;3.87;;;;;;;-145.69;68.52;52353.28;5133758;27;20193;-80
2024/02/11 08:24:36;;;;;;;7.77;3.73;;;;;;;-145.69;67.75;52357.25;5133469;27;20567;-82
2024/02/11 08:27:03;;;;;;;9.03;3.50;;;;;;;-145.69;67.25;52345.38;5133482;27;20690;-80
2024/02/11 08:29:29;;;;;;;11.15;3.95;;;;;;;-145.69;68.70;52355.28;5133506;27;20434;-81
2024/02/11 08:31:56;;;;;;;7.80;3.90;;;;;;;-145.69;67.14;52319.63;5133718;27;20196;-81
2024/02/11 08:34:23;;;;;;;10.20;4.07;;;;;;;-145.69;66.47;52353.28;5133785;27;20623;-81
2024/02/11 08:36:49;;;;;;;8.53;3.87;;;;;;;-145.69;65.96;52357.25;5133078;27;20647;-81
2024/02/11 08:39:17;;;;;;;13.27;4.33;;;;;;;-145.69;65.57;52325.56;5133340;27;20196;-81
2024/02/11 08:41:45;;;;;;;8.10;3.80;;;;;;;-145.69;66.58;52327.53;5133510;27;20241;-81
2024/02/11 08:44:13;;;;;;;7.03;3.33;;;;;;;-145.69;66.96;52333.47;5133045;27;20663;-81
2024/02/11 08:46:40;;;;;;;6.80;3.60;;;;;;;-145.69;66.98;52345.38;5133499;27;20643;-81
2024/02/11 08:49:06;;;;;;;6.27;3.40;;;;;;;-145.69;66.67;52345.38;5133437;27;20199;-81
2024/02/11 08:51:35;;;;;;;7.17;3.40;;;;;;;-145.69;65.98;52325.56;5132284;27;20201;-81
2024/02/11 08:54:01;;;;;;;7.90;3.27;;;;;;;-145.69;64.14;52325.56;5132921;27;20227;-81
2024/02/11 08:56:29;;;;;;;5.03;2.93;;;;;;;-145.69;64.79;52365.16;5133447;27;20192;-81
2024/02/11 08:58:56;;;;;;;7.63;3.37;;;;;;;-145.69;64.72;52319.63;5133423;27;20200;-81
2024/02/11 09:01:24;;;;;;;8.17;3.07;;;;;;;-145.69;65.93;52349.31;5133036;27;20204;-81
2024/02/11 09:03:50;;;;;;;5.73;3.30;;;;;;;-145.69;64.82;52361.22;5133661;27;20246;-81
2024/02/11 09:06:17;;;;;;;5.10;2.93;;;;;;;-145.69;64.76;52289.91;5137295;27;20192;-81
2024/02/11 09:08:44;;;;;;;6.30;3.27;;;;;;;-145.69;64.74;52309.72;5137651;27;20223;-82
2024/02/11 09:11:13;;;;;;;7.93;3.37;;;;;;;-145.69;64.09;52311.69;5137686;27;20581;-81
2024/02/11 09:13:40;;;;;;;6.83;3.13;;;;;;;-145.69;63.31;52333.47;5137255;27;20196;-80
2024/02/11 09:16:09;;;;;;;7.87;3.00;;;;;;;-145.69;61.55;52333.47;5137563;27;20253;-80
2024/02/11 09:18:35;;;;;;;11.43;3.60;;;;;;;-145.69;62.19;52345.38;5137364;27;20204;-80
2024/02/11 09:21:02;;;;;;;6.53;2.80;;;;;;;-145.69;61.62;52331.50;5137368;27;20200;-80
2024/02/11 09:23:28;;;;;;;6.50;3.13;;;;;;;-145.69;61.74;52317.66;5137356;27;20193;-80
2024/02/11 09:25:55;;;;;;;9.33;2.80;;;;;;;-145.69;61.11;52311.69;5137139;27;20193;-80
2024/02/11 09:28:22;;;;;;;6.60;2.50;;;;;;;-145.69;61.79;52337.44;5136941;27;20230;-80
2024/02/11 09:30:49;;;;;;;5.50;2.57;;;;;;;-145.69;61.59;52349.31;5137127;27;20208;-81
2024/02/11 09:33:17;;;;;;;8.70;3.77;;;;;;;-145.69;61.28;52323.59;5136776;27;20200;-80
2024/02/11 09:35:43;;;;;;;5.90;2.80;;;;;;;-145.69;60.59;52349.31;5137283;27;20206;-81
2024/02/11 09:38:11;;;;;;;5.10;2.60;;;;;;;-145.69;61.24;52325.56;5137309;27;20207;-80
2024/02/11 09:40:38;;;;;;;5.70;2.63;;;;;;;-145.69;61.37;52291.91;5137081;27;20196;-81
2024/02/11 09:43:05;;;;;;;3.20;2.40;;;;;;;-145.69;60.73;52313.69;5137189;27;20197;-80
2024/02/11 09:45:35;;;;;;;3.57;2.53;;;;;;;-145.69;61.01;52282.00;5136784;27;20193;-80
2024/02/11 09:48:07;;;;;;;3.83;2.20;;;;;;;-145.69;60.44;52329.53;5136682;27;20228;-80
2024/02/11 09:50:35;;;;;;;5.53;2.40;;;;;;;-145.69;60.14;52341.41;5136570;27;20200;-80
2024/02/11 09:53:02;;;;;;;6.50;3.10;;;;;;;-145.69;60.26;52331.50;5136313;27;20654;-80
2024/02/11 09:55:31;;;;;;;5.90;2.57;;;;;;;-145.69;61.51;52305.75;5136132;27;20201;-80
2024/02/11 09:57:58;;;;;;;3.83;2.53;;;;;;;-145.69;61.00;52347.34;5136506;27;20655;-80
2024/02/11 10:00:25;;;;;;;4.73;2.60;;;;;;;-145.69;60.62;52333.47;5136134;27;20193;-80
2024/02/11 10:02:52;;;;;;;3.20;2.40;;;;;;;-145.69;60.54;52297.84;5136566;27;20643;-80
2024/02/11 10:05:21;;;;;;;4.77;2.50;;;;;;;-145.69;59.22;52319.63;5136457;27;20208;-80
2024/02/11 10:07:54;;;;;;;8.93;3.40;;;;;;;-145.69;58.04;52291.91;5136084;27;20586;-80
2024/02/11 10:10:21;;;;;;;9.50;4.00;;;;;;;-145.69;57.85;52319.63;5136431;27;20193;-82
2024/02/11 10:12:51;;;;;;;4.67;2.20;;;;;;;-145.69;58.08;52293.88;5136405;27;20612;-82
2024/02/11 10:15:20;;;;;;;4.40;2.23;;;;;;;-145.69;57.70;52299.81;5136224;27;20201;-81
2024/02/11 10:17:46;;;;;;;3.33;2.07;;;;;;;-145.69;58.16;52321.59;5135780;27;20248;-81
2024/02/11 10:20:14;;;;;;;4.80;2.40;;;;;;;-145.69;58.01;52329.53;5136328;27;20197;-81
2024/02/11 10:22:40;;;;;;;5.27;3.10;;;;;;;-145.69;58.02;52285.97;5136332;27;20692;-81
2024/02/11 10:25:11;;;;;;;4.10;2.00;;;;;;;-145.69;58.07;52303.78;5135972;27;20200;-81
2024/02/11 10:27:38;;;;;;;3.67;2.27;;;;;;;-145.69;58.31;52309.72;5135958;27;20666;-81
2024/02/11 10:30:09;;;;;;;3.73;2.10;;;;;;;-145.69;57.71;52329.53;5135861;27;20597;-81
2024/02/11 10:32:36;;;;;;;5.87;2.43;;;;;;;-145.69;57.73;52272.09;5136198;27;20189;-81
2024/02/11 10:35:04;;;;;;;3.80;2.10;;;;;;;-145.69;57.27;52285.97;5133727;27;20803;-80
2024/02/11 10:37:36;;;;;;;4.93;2.70;;;;;;;-145.69;56.02;52301.81;5133448;27;20204;-80
2024/02/11 10:40:05;;;;;;;5.97;2.17;;;;;;;-145.69;56.21;52280.00;5135469;27;20261;-81
2024/02/11 10:42:34;;;;;;;3.47;2.20;;;;;;;-145.69;56.47;52283.97;5135703;27;20218;-82
2024/02/11 10:45:01;;;;;;;7.07;2.00;;;;;;;-145.69;56.70;52311.69;5134505;27;20212;-80
2024/02/11 10:47:28;;;;;;;3.57;2.10;;;;;;;-145.69;56.40;52321.59;5134436;27;20232;-80
2024/02/11 10:49:55;;;;;;;2.13;1.53;;;;;;;-145.69;56.51;52323.59;5134041;27;20719;-80
2024/02/11 10:52:25;;;;;;;1.90;1.70;;;;;;;-145.69;57.49;52321.59;5135492;27;20228;-80
2024/02/11 10:54:56;;;;;;;5.63;2.70;;;;;;;-145.69;57.43;52321.59;5134880;27;20193;-80
2024/02/11 10:57:24;;;;;;;3.20;1.90;;;;;;;-145.69;58.11;52276.06;5135423;27;20196;-80
2024/02/11 11:00:02;;;;;;;4.27;1.87;;;;;;;-145.69;58.43;52309.72;5134862;27;20533;-80
2024/02/11 11:02:31;;;;;;;3.47;2.07;;;;;;;-145.69;58.02;52285.97;5134681;27;20551;-79
2024/02/11 11:05:03;;;;;;;4.80;2.23;;;;;;;-145.69;57.24;52309.72;5133851;27;20603;-79
2024/02/11 11:07:32;;;;;;;2.63;1.90;;;;;;;-145.69;57.17;52313.69;5135222;27;20307;-80
2024/02/11 11:09:58;;;;;;;2.53;1.50;;;;;;;-145.69;57.15;52305.75;5130800;27;20690;-81
2024/02/11 11:12:25;;;;;;;2.30;1.70;;;;;;;-145.69;57.14;52305.75;5134606;27;20203;-80
2024/02/11 11:14:57;;;;;;;2.43;1.57;;;;;;;-145.69;55.71;52291.91;5134436;27;20225;-81